createdAt,value
2019-02-25T00:01:03.501Z,159.93
2019-02-25T00:03:31.915Z,152.30
2019-02-25T00:06:00.934Z,142.93
2019-02-25T00:08:29.282Z,133.00
2019-02-25T00:10:57.578Z,136.73
2019-02-25T00:13:25.813Z,131.97
2019-02-25T00:15:53.981Z,129.93
2019-02-25T00:18:22.249Z,145.10
2019-02-25T00:20:50.408Z,113.70
2019-02-25T00:23:18.569Z,101.90
2019-02-25T00:25:47.046Z,146.57
2019-02-25T00:28:15.334Z,117.73
2019-02-25T00:30:43.495Z,89.30
2019-02-25T00:33:11.899Z,74.30
2019-02-25T00:35:40.161Z,83.93
2019-02-25T00:38:08.351Z,75.10
2019-02-25T00:40:36.531Z,82.50
2019-02-25T00:43:04.701Z,44.07
2019-02-25T00:45:32.865Z,32.23
2019-02-25T00:48:01.063Z,30.20
2019-02-25T00:50:29.294Z,32.57
2019-02-25T00:52:57.464Z,29.43
2019-02-25T00:55:25.678Z,28.57
2019-02-25T00:57:53.838Z,33.87
2019-02-25T01:00:22.559Z,63.00
2019-02-25T01:02:51.133Z,53.70
2019-02-25T01:05:19.244Z,51.07
2019-02-25T01:07:48.404Z,60.90
2019-02-25T01:10:17.253Z,56.70
2019-02-25T01:12:45.776Z,55.67
2019-02-25T01:15:14.318Z,51.87
2019-02-25T01:17:42.782Z,50.97
2019-02-25T01:20:11.983Z,52.30
2019-02-25T01:22:40.141Z,57.87
2019-02-25T01:25:09.713Z,55.23
2019-02-25T01:27:38.127Z,51.80
2019-02-25T01:30:10.738Z,57.23
2019-02-25T01:32:38.933Z,47.43
2019-02-25T01:35:08.595Z,48.67
2019-02-25T01:37:36.845Z,42.57
2019-02-25T01:40:06.579Z,38.50
2019-02-25T01:42:34.739Z,41.03
2019-02-25T01:45:03.102Z,48.07
2019-02-25T01:47:31.626Z,50.37
2019-02-25T01:49:59.787Z,46.07
2019-02-25T01:52:28.313Z,49.87
2019-02-25T01:54:56.590Z,48.47
2019-02-25T01:57:24.762Z,49.27
2019-02-25T01:59:52.920Z,39.13
2019-02-25T02:02:21.481Z,46.93
2019-02-25T02:04:49.636Z,48.73
2019-02-25T02:07:17.805Z,44.70
2019-02-25T02:09:47.321Z,45.97
2019-02-25T02:12:15.473Z,42.93
2019-02-25T02:14:43.654Z,44.63
2019-02-25T02:17:11.857Z,44.93
2019-02-25T02:19:40.216Z,48.07
2019-02-25T02:22:08.480Z,47.27
2019-02-25T02:24:37.054Z,48.00
2019-02-25T02:27:05.322Z,43.47
2019-02-25T02:29:33.432Z,31.37
2019-02-25T02:32:01.646Z,26.23
2019-02-25T02:34:29.998Z,27.90
2019-02-25T02:36:58.466Z,30.70
2019-02-25T02:39:26.669Z,26.97
2019-02-25T02:42:14.193Z,31.53
2019-02-25T02:44:43.649Z,24.87
2019-02-25T02:47:19.696Z,23.93
2019-02-25T02:49:48.131Z,26.50
2019-02-25T02:52:16.663Z,24.67
2019-02-25T02:54:45.345Z,24.13
2019-02-25T02:57:13.539Z,21.80
2019-02-25T02:59:42.133Z,24.33
2019-02-25T03:02:10.516Z,25.17
2019-02-25T03:04:38.754Z,23.97
2019-02-25T03:07:06.907Z,25.90
2019-02-25T03:09:35.059Z,23.73
2019-02-25T03:12:04.175Z,28.77
2019-02-25T03:14:32.342Z,31.17
2019-02-25T03:17:00.837Z,29.90
2019-02-25T03:19:29.053Z,28.43
2019-02-25T03:21:57.210Z,28.40
2019-02-25T03:24:25.365Z,28.10
2019-02-25T03:26:53.745Z,28.67
2019-02-25T03:29:21.901Z,31.07
2019-02-25T03:31:50.097Z,26.73
2019-02-25T03:34:18.299Z,29.83
2019-02-25T03:36:46.461Z,26.43
2019-02-25T03:39:14.608Z,26.20
2019-02-25T03:41:43.005Z,22.60
2019-02-25T03:44:11.334Z,23.40
2019-02-25T03:46:39.545Z,23.13
2019-02-25T03:49:08.041Z,25.63
2019-02-25T03:51:36.193Z,25.53
2019-02-25T03:54:04.353Z,29.10
2019-02-25T03:56:32.562Z,26.13
2019-02-25T03:59:00.715Z,31.40
2019-02-25T04:01:28.876Z,26.27
2019-02-25T04:03:57.096Z,32.10
2019-02-25T04:06:25.528Z,50.57
2019-02-25T04:08:53.689Z,47.83
2019-02-25T04:11:21.878Z,39.17
2019-02-25T04:13:51.024Z,34.57
2019-02-25T04:16:19.176Z,37.83
2019-02-25T04:18:47.369Z,34.13
2019-02-25T04:21:15.689Z,34.97
2019-02-25T04:23:43.843Z,35.37
2019-02-25T04:26:12.038Z,32.40
2019-02-25T04:28:40.184Z,30.43
2019-02-25T04:31:08.341Z,49.50
2019-02-25T04:33:36.539Z,44.27
2019-02-25T04:36:04.702Z,46.70
2019-02-25T04:38:33.077Z,46.50
2019-02-25T04:41:01.348Z,45.17
2019-02-25T04:43:29.509Z,39.90
2019-02-25T04:45:57.660Z,43.90
2019-02-25T04:48:25.879Z,52.03
2019-02-25T04:50:54.314Z,49.70
2019-02-25T04:53:22.470Z,60.37
2019-02-25T04:55:50.664Z,52.33
2019-02-25T04:58:18.819Z,44.07
2019-02-25T05:00:46.977Z,51.87
2019-02-25T05:03:15.186Z,54.20
2019-02-25T05:05:43.413Z,41.60
2019-02-25T05:08:11.573Z,51.60
2019-02-25T05:10:40.040Z,56.93
2019-02-25T05:13:08.837Z,51.63
2019-02-25T05:15:37.979Z,48.80
2019-02-25T05:18:06.433Z,50.43
2019-02-25T05:20:34.660Z,40.70
2019-02-25T05:23:02.886Z,40.17
2019-02-25T05:25:31.364Z,40.87
2019-02-25T05:27:59.532Z,43.50
2019-02-25T05:30:27.683Z,43.08
2019-02-25T05:32:56.097Z,40.93
2019-02-25T05:35:24.423Z,43.67
2019-02-25T05:37:52.579Z,36.80
2019-02-25T05:40:21.153Z,38.20
2019-02-25T05:42:49.304Z,36.30
2019-02-25T05:45:17.658Z,38.78
2019-02-25T05:47:45.853Z,33.60
2019-02-25T05:50:14.579Z,40.37
2019-02-25T05:52:42.731Z,38.83
2019-02-25T05:55:14.235Z,45.03
2019-02-25T05:57:42.616Z,47.40
2019-02-25T06:00:13.222Z,44.00
2019-02-25T06:02:41.463Z,46.00
2019-02-25T06:05:09.773Z,48.23
2019-02-25T06:07:38.073Z,57.33
2019-02-25T06:10:07.843Z,48.97
2019-02-25T06:12:36.158Z,46.20
2019-02-25T06:15:05.985Z,55.97
2019-02-25T06:17:35.271Z,43.07
2019-02-25T06:20:05.002Z,51.30
2019-02-25T06:22:33.157Z,49.23
2019-02-25T06:25:01.436Z,51.37
2019-02-25T06:27:30.966Z,49.77
2019-02-25T06:29:59.400Z,52.23
2019-02-25T06:32:28.091Z,58.50
2019-02-25T06:34:56.419Z,65.03
2019-02-25T06:37:24.578Z,63.97
2019-02-25T06:39:53.229Z,65.27
2019-02-25T06:42:21.645Z,63.00
2019-02-25T06:44:49.880Z,66.47
2019-02-25T06:47:18.339Z,57.37
2019-02-25T06:49:46.839Z,82.87
2019-02-25T06:52:15.329Z,110.80
2019-02-25T06:54:43.741Z,126.70
2019-02-25T06:57:12.180Z,123.30
2019-02-25T06:59:40.347Z,107.57
2019-02-25T07:02:08.981Z,121.93
2019-02-25T07:04:38.949Z,119.17
2019-02-25T07:07:14.852Z,112.97
2019-02-25T07:09:50.529Z,104.17
2019-02-25T07:12:29.356Z,125.20
2019-02-25T07:14:59.157Z,133.17
2019-02-25T07:17:29.148Z,146.67
2019-02-25T07:20:00.046Z,107.43
2019-02-25T07:22:29.898Z,104.40
2019-02-25T07:25:05.566Z,92.27
2019-02-25T07:27:38.486Z,83.63
2019-02-25T07:30:17.857Z,80.53
2019-02-25T07:32:47.159Z,82.57
2019-02-25T07:35:33.770Z,77.87
2019-02-25T07:38:12.685Z,73.53
2019-02-25T07:40:42.673Z,63.77
2019-02-25T07:43:15.857Z,46.00
2019-02-25T07:45:45.860Z,61.17
2019-02-25T07:48:15.663Z,35.47
2019-02-25T07:50:58.189Z,34.17
2019-02-25T07:53:46.464Z,22.63
2019-02-25T07:56:28.433Z,30.83
2019-02-25T07:59:06.843Z,28.77
2019-02-25T08:01:42.319Z,20.40
2019-02-25T08:04:18.448Z,15.90
2019-02-25T08:06:54.111Z,17.40
2019-02-25T08:09:40.346Z,11.13
2019-02-25T08:12:12.948Z,12.83
2019-02-25T08:14:46.194Z,15.70
2019-02-25T08:17:16.034Z,12.03
2019-02-25T08:19:45.893Z,9.70
2019-02-25T08:22:15.866Z,11.03
2019-02-25T08:25:02.416Z,12.27
2019-02-25T08:27:44.436Z,13.27
2019-02-25T08:30:17.067Z,14.10
2019-02-25T08:32:59.159Z,14.07
2019-02-25T08:36:00.831Z,11.97
2019-02-25T08:38:30.975Z,11.87
2019-02-25T08:41:11.309Z,15.43
2019-02-25T08:43:44.239Z,13.77
2019-02-25T08:46:17.208Z,13.30
2019-02-25T08:48:56.051Z,14.13
2019-02-25T08:51:24.251Z,14.63
2019-02-25T08:53:52.415Z,14.57
2019-02-25T08:56:22.842Z,12.87
2019-02-25T08:58:51.063Z,11.53
2019-02-25T09:01:19.220Z,13.87
2019-02-25T09:03:50.047Z,15.30
2019-02-25T09:06:18.643Z,17.40
2019-02-25T09:08:46.924Z,17.17
2019-02-25T09:11:15.288Z,14.90
2019-02-25T09:13:43.788Z,19.13
2019-02-25T09:16:12.066Z,17.83
2019-02-25T09:18:40.354Z,17.23
2019-02-25T09:21:08.548Z,17.13
2019-02-25T09:23:37.715Z,17.40
2019-02-25T09:26:05.878Z,17.73
2019-02-25T09:28:34.099Z,17.80
2019-02-25T09:31:02.272Z,18.33
2019-02-25T09:33:30.852Z,17.63
2019-02-25T09:35:58.983Z,17.10
2019-02-25T09:38:27.135Z,46.80
2019-02-25T09:40:55.617Z,17.27
2019-02-25T09:43:23.802Z,20.57
2019-02-25T09:45:51.963Z,20.53
2019-02-25T09:48:20.122Z,20.00
2019-02-25T09:50:48.555Z,17.50
2019-02-25T09:53:16.669Z,20.77
2019-02-25T09:55:45.267Z,22.67
2019-02-25T09:58:13.536Z,18.50
2019-02-25T10:00:41.701Z,18.77
2019-02-25T10:03:10.296Z,21.03
2019-02-25T10:05:40.924Z,20.53
2019-02-25T10:08:09.206Z,30.90
2019-02-25T10:10:37.417Z,23.63
2019-02-25T10:13:10.255Z,19.57
2019-02-25T10:15:43.226Z,21.10
2019-02-25T10:18:13.973Z,23.30
2019-02-25T10:20:42.226Z,24.70
2019-02-25T10:23:10.619Z,21.67
2019-02-25T10:25:44.793Z,26.97
2019-02-25T10:28:15.485Z,24.23
2019-02-25T10:30:52.543Z,37.97
2019-02-25T10:33:15.905Z,22.67
2019-02-25T10:35:44.335Z,27.77
2019-02-25T10:38:15.069Z,24.33
2019-02-25T10:40:49.594Z,21.67
2019-02-25T10:43:17.940Z,20.03
2019-02-25T10:45:46.100Z,22.67
2019-02-25T10:48:15.217Z,20.53
2019-02-25T10:50:55.581Z,18.57
2019-02-25T10:53:20.391Z,18.67
2019-02-25T10:55:55.021Z,19.27
2019-02-25T10:58:24.770Z,17.33
2019-02-25T11:00:55.797Z,22.13
2019-02-25T11:03:26.726Z,28.93
2019-02-25T11:06:00.676Z,16.03
2019-02-25T11:08:31.598Z,19.77
2019-02-25T11:11:04.349Z,16.93
2019-02-25T11:13:36.658Z,19.50
2019-02-25T11:16:05.438Z,16.10
2019-02-25T11:18:33.931Z,17.00
2019-02-25T11:21:06.170Z,16.67
2019-02-25T11:23:37.100Z,17.10
2019-02-25T11:26:10.338Z,15.70
2019-02-25T11:28:43.558Z,16.77
2019-02-25T11:31:17.675Z,18.43
2019-02-25T11:33:45.585Z,23.67
2019-02-25T11:36:17.743Z,18.90
2019-02-25T11:38:52.758Z,16.77
2019-02-25T11:41:23.349Z,66.93
2019-02-25T11:43:52.800Z,21.70
2019-02-25T11:46:21.405Z,17.43
2019-02-25T11:48:49.733Z,19.23
2019-02-25T11:51:18.403Z,22.47
2019-02-25T11:53:46.922Z,17.90
2019-02-25T11:56:17.654Z,23.13
2019-02-25T11:58:45.964Z,22.13
2019-02-25T12:01:14.119Z,23.67
2019-02-25T12:03:44.814Z,21.33
2019-02-25T12:06:13.064Z,19.20
2019-02-25T12:08:41.223Z,19.33
2019-02-25T12:11:14.289Z,20.73
2019-02-25T12:13:44.113Z,25.03
2019-02-25T12:16:12.276Z,22.97
2019-02-25T12:18:40.553Z,20.43
2019-02-25T12:21:08.755Z,22.97
2019-02-25T12:23:36.907Z,21.13
2019-02-25T12:26:09.891Z,21.93
2019-02-25T12:28:41.220Z,23.03
2019-02-25T12:31:12.443Z,24.70
2019-02-25T12:33:40.880Z,27.33
2019-02-25T12:36:16.473Z,24.73
2019-02-25T12:38:46.351Z,29.30
2019-02-25T12:41:14.659Z,30.50
2019-02-25T12:43:42.953Z,26.50
2019-02-25T12:46:13.490Z,30.17
2019-02-25T12:48:44.494Z,23.50
2019-02-25T12:51:17.686Z,27.33
2019-02-25T12:53:46.024Z,26.23
2019-02-25T12:56:16.447Z,23.97
2019-02-25T12:58:48.752Z,68.27
2019-02-25T13:01:16.927Z,29.20
2019-02-25T13:03:47.454Z,30.03
2019-02-25T13:06:18.413Z,30.67
2019-02-25T13:08:46.585Z,22.87
2019-02-25T13:11:17.177Z,26.33
2019-02-25T13:13:48.248Z,26.13
2019-02-25T13:16:18.771Z,26.00
2019-02-25T13:18:46.929Z,27.80
2019-02-25T13:21:20.186Z,27.77
2019-02-25T13:23:47.360Z,25.57
2019-02-25T13:26:17.958Z,28.90
2019-02-25T13:28:48.635Z,31.47
2019-02-25T13:31:22.437Z,24.23
2019-02-25T13:33:54.575Z,28.93
2019-02-25T13:36:23.973Z,22.93
2019-02-25T13:38:56.192Z,28.83
2019-02-25T13:41:26.728Z,25.93
2019-02-25T13:43:55.108Z,28.13
2019-02-25T13:46:23.718Z,29.33
2019-02-25T13:48:54.309Z,26.67
2019-02-25T13:51:25.083Z,24.47
2019-02-25T13:53:56.087Z,22.17
2019-02-25T13:56:26.633Z,24.57
2019-02-25T13:58:55.748Z,27.33
2019-02-25T14:01:26.176Z,29.03
2019-02-25T14:03:54.358Z,26.60
2019-02-25T14:06:22.682Z,25.80
2019-02-25T14:08:53.109Z,28.10
2019-02-25T14:11:23.707Z,28.10
2019-02-25T14:13:52.156Z,28.67
2019-02-25T14:16:23.192Z,30.30
2019-02-25T14:18:52.312Z,30.57
2019-02-25T14:21:23.049Z,29.63
2019-02-25T14:23:53.976Z,32.63
2019-02-25T14:26:23.613Z,26.83
2019-02-25T14:28:54.276Z,29.40
2019-02-25T14:31:22.877Z,30.53
2019-02-25T14:33:52.336Z,29.90
2019-02-25T14:36:21.894Z,32.23
2019-02-25T14:38:54.144Z,32.80
2019-02-25T14:41:22.613Z,33.20
2019-02-25T14:43:54.243Z,33.30
2019-02-25T14:46:29.013Z,31.17
2019-02-25T14:48:57.460Z,28.70
2019-02-25T14:51:28.396Z,26.87
2019-02-25T14:53:56.735Z,26.70
2019-02-25T14:56:27.424Z,24.90
2019-02-25T14:59:00.640Z,28.90
2019-02-25T15:01:29.699Z,25.17
2019-02-25T15:04:01.776Z,27.03
2019-02-25T15:06:32.069Z,25.43
2019-02-25T15:09:05.476Z,28.53
2019-02-25T15:11:37.839Z,24.03
2019-02-25T15:14:08.127Z,30.07
2019-02-25T15:16:41.219Z,25.40
2019-02-25T15:19:13.387Z,30.27
2019-02-25T15:21:43.258Z,28.00
2019-02-25T15:24:19.050Z,28.60
2019-02-25T15:26:47.603Z,28.33
2019-02-25T15:29:17.727Z,34.07
2019-02-25T15:31:46.296Z,26.27
2019-02-25T15:34:24.986Z,32.47
2019-02-25T15:36:56.443Z,187.37
2019-02-25T15:39:29.250Z,68.20
2019-02-25T15:41:57.585Z,36.30
2019-02-25T15:44:26.242Z,29.43
2019-02-25T15:47:00.261Z,27.67
2019-02-25T15:49:36.670Z,29.27
2019-02-25T15:52:10.607Z,33.13
2019-02-25T15:54:42.036Z,31.27
2019-02-25T15:57:11.355Z,30.60
2019-02-25T15:59:41.458Z,32.87
2019-02-25T16:02:14.169Z,42.37
2019-02-25T16:04:45.577Z,41.73
2019-02-25T16:07:14.309Z,45.87
2019-02-25T16:09:45.419Z,47.93
2019-02-25T16:12:13.691Z,92.50
2019-02-25T16:14:42.641Z,80.57
2019-02-25T16:17:16.430Z,64.50
2019-02-25T16:19:47.578Z,72.93
2019-02-25T16:22:14.953Z,53.63
2019-02-25T16:24:48.020Z,49.53
2019-02-25T16:27:16.890Z,38.37
2019-02-25T16:29:46.316Z,41.50
2019-02-25T16:32:17.025Z,46.63
2019-02-25T16:34:50.758Z,79.53
2019-02-25T16:37:19.812Z,50.27
2019-02-25T16:39:51.213Z,50.27
2019-02-25T16:42:25.962Z,45.67
2019-02-25T16:44:57.170Z,54.93
2019-02-25T16:47:32.789Z,95.43
2019-02-25T16:49:58.580Z,66.70
2019-02-25T16:52:29.822Z,62.00
2019-02-25T16:55:00.665Z,62.30
2019-02-25T16:57:29.243Z,85.97
2019-02-25T17:00:02.256Z,79.10
2019-02-25T17:02:34.461Z,107.80
2019-02-25T17:05:02.790Z,125.27
2019-02-25T17:07:35.914Z,103.83
2019-02-25T17:10:19.372Z,98.83
2019-02-25T17:12:50.011Z,161.27
2019-02-25T17:15:21.475Z,111.80
2019-02-25T17:17:49.911Z,163.33
2019-02-25T17:20:21.154Z,179.67
2019-02-25T17:22:52.331Z,224.33
2019-02-25T17:25:27.113Z,131.33
2019-02-25T17:27:57.698Z,155.80
2019-02-25T17:30:26.812Z,134.33
2019-02-25T17:32:55.326Z,115.87
2019-02-25T17:35:26.594Z,114.60
2019-02-25T17:37:58.959Z,113.63
2019-02-25T17:40:29.936Z,130.40
2019-02-25T17:43:03.507Z,123.97
2019-02-25T17:45:37.199Z,129.97
2019-02-25T17:48:11.063Z,113.37
2019-02-25T17:50:43.427Z,140.83
2019-02-25T17:53:11.599Z,232.37
2019-02-25T17:55:40.528Z,148.70
2019-02-25T17:58:12.884Z,156.23
2019-02-25T18:00:46.488Z,193.50
2019-02-25T18:03:15.485Z,201.70
2019-02-25T18:05:47.843Z,210.30
2019-02-25T18:08:16.370Z,199.57
2019-02-25T18:10:50.584Z,197.30
2019-02-25T18:13:25.933Z,183.30
2019-02-25T18:15:55.838Z,223.80
2019-02-25T18:18:24.638Z,207.50
2019-02-25T18:20:55.784Z,192.57
2019-02-25T18:23:28.761Z,200.67
2019-02-25T18:25:58.969Z,146.13
2019-02-25T18:28:29.607Z,141.20
2019-02-25T18:31:00.255Z,155.87
2019-02-25T18:33:29.090Z,154.53
2019-02-25T18:36:05.083Z,193.10
2019-02-25T18:38:36.918Z,135.80
2019-02-25T18:41:06.879Z,99.27
2019-02-25T18:43:35.342Z,107.07
2019-02-25T18:46:05.479Z,114.53
2019-02-25T18:48:38.553Z,120.73
2019-02-25T18:51:07.634Z,161.83
2019-02-25T18:53:36.466Z,167.50
2019-02-25T18:56:04.716Z,214.30
2019-02-25T18:58:34.866Z,199.90
2019-02-25T19:01:07.359Z,216.07
2019-02-25T19:03:40.647Z,194.93
2019-02-25T19:06:09.756Z,214.50
2019-02-25T19:08:38.600Z,198.57
2019-02-25T19:11:06.849Z,206.90
2019-02-25T19:13:35.962Z,205.90
2019-02-25T19:16:04.609Z,215.13
2019-02-25T19:18:34.447Z,214.37
2019-02-25T19:21:06.589Z,247.03
2019-02-25T19:23:39.560Z,221.97
2019-02-25T19:26:19.552Z,197.03
2019-02-25T19:28:49.820Z,185.77
2019-02-25T19:31:19.237Z,192.67
2019-02-25T19:33:48.146Z,230.77
2019-02-25T19:36:19.127Z,213.33
2019-02-25T19:38:48.494Z,206.50
2019-02-25T19:41:22.424Z,194.67
2019-02-25T19:43:48.766Z,215.53
2019-02-25T19:46:17.617Z,264.87
2019-02-25T19:48:47.981Z,248.20
2019-02-25T19:51:18.398Z,222.43
2019-02-25T19:53:50.191Z,234.23
2019-02-25T19:56:23.022Z,256.27
2019-02-25T19:58:57.972Z,310.17
2019-02-25T20:01:28.699Z,348.90
2019-02-25T20:03:56.901Z,334.40
2019-02-25T20:06:28.152Z,259.90
2019-02-25T20:08:58.702Z,226.63
2019-02-25T20:11:30.810Z,232.77
2019-02-25T20:14:01.593Z,240.83
2019-02-25T20:16:34.335Z,295.30
2019-02-25T20:19:06.895Z,256.70
2019-02-25T20:21:37.814Z,323.87
2019-02-25T20:24:14.664Z,352.23
2019-02-25T20:26:48.607Z,350.00
2019-02-25T20:29:15.809Z,384.87
2019-02-25T20:31:55.765Z,370.43
2019-02-25T20:34:25.952Z,352.73
2019-02-25T20:36:55.385Z,329.57
2019-02-25T20:39:24.854Z,349.57
2019-02-25T20:41:54.433Z,254.17
2019-02-25T20:44:26.239Z,252.80
2019-02-25T20:46:57.178Z,238.13
2019-02-25T20:49:29.456Z,213.87
2019-02-25T20:51:57.020Z,216.00
2019-02-25T20:54:26.049Z,215.90
2019-02-25T20:56:55.487Z,465.37
2019-02-25T20:59:25.877Z,344.93
2019-02-25T21:01:54.370Z,251.97
2019-02-25T21:04:22.610Z,337.23
2019-02-25T21:06:51.062Z,348.20
2019-02-25T21:09:19.279Z,180.63
2019-02-25T21:11:47.511Z,203.23
2019-02-25T21:14:16.076Z,250.30
2019-02-25T21:16:44.625Z,225.27
2019-02-25T21:19:15.568Z,211.67
2019-02-25T21:21:43.302Z,158.37
2019-02-25T21:24:13.533Z,166.50
2019-02-25T21:26:42.160Z,240.60
2019-02-25T21:29:31.636Z,211.63
2019-02-25T21:31:59.723Z,125.87
2019-02-25T21:34:29.173Z,127.20
2019-02-25T21:36:58.525Z,527.57
2019-02-25T21:39:27.692Z,132.17
2019-02-25T21:41:56.036Z,111.77
2019-02-25T21:44:26.281Z,119.57
2019-02-25T21:46:56.191Z,143.57
2019-02-25T21:49:26.992Z,128.10
2019-02-25T21:51:55.808Z,130.67
2019-02-25T21:54:25.535Z,97.50
2019-02-25T21:56:53.845Z,85.10
2019-02-25T21:59:22.477Z,92.17
2019-02-25T22:02:04.150Z,150.00
2019-02-25T22:04:32.987Z,187.23
2019-02-25T22:07:02.599Z,184.27
2019-02-25T22:09:36.973Z,179.93
2019-02-25T22:12:01.363Z,181.33
2019-02-25T22:14:30.124Z,179.07
2019-02-25T22:17:02.947Z,193.27
2019-02-25T22:19:32.523Z,201.27
2019-02-25T22:22:03.115Z,163.47
2019-02-25T22:24:34.535Z,136.30
2019-02-25T22:27:02.447Z,130.47
2019-02-25T22:29:30.565Z,117.63
2019-02-25T22:31:59.689Z,115.00
2019-02-25T22:34:29.155Z,96.90
2019-02-25T22:36:57.419Z,89.67
2019-02-25T22:39:27.370Z,80.80
2019-02-25T22:42:00.618Z,85.57
2019-02-25T22:44:30.762Z,108.43
2019-02-25T22:46:58.806Z,82.67
2019-02-25T22:49:30.884Z,59.60
2019-02-25T22:52:01.264Z,55.57
2019-02-25T22:54:30.358Z,57.53
2019-02-25T22:56:59.734Z,67.33
2019-02-25T22:59:27.921Z,74.13
2019-02-25T23:01:57.250Z,64.10
2019-02-25T23:04:26.507Z,68.97
2019-02-25T23:06:55.721Z,57.43
2019-02-25T23:09:25.759Z,61.73
2019-02-25T23:11:55.541Z,59.70
2019-02-25T23:14:23.862Z,53.53
2019-02-25T23:16:52.492Z,50.83
2019-02-25T23:19:22.452Z,48.63
2019-02-25T23:21:50.701Z,43.40
2019-02-25T23:24:19.071Z,41.63
2019-02-25T23:26:48.683Z,45.67
2019-02-25T23:29:17.608Z,46.50
2019-02-25T23:31:47.088Z,42.77
2019-02-25T23:34:17.818Z,42.73
2019-02-25T23:36:47.107Z,43.20
2019-02-25T23:39:17.720Z,49.80
2019-02-25T23:41:46.324Z,43.27
2019-02-25T23:44:17.424Z,41.97
2019-02-25T23:46:45.882Z,36.83
2019-02-25T23:49:14.035Z,45.70
2019-02-25T23:51:43.808Z,45.17
2019-02-25T23:54:16.033Z,35.90
2019-02-25T23:56:45.476Z,35.93
2019-02-25T23:59:14.750Z,33.67
